Time;durP1;ratioP1;P1;durP2;ratioP2;P2;SDS_P1;SDS_P2;PMS_P1;PMS_P2;Temp;Humidity;BMP_temperature;BMP_pressure;BME280_temperature;BME280_humidity;BME280_pressure;Samples;Min_cycle;Max_cycle;Signal;HPM_P1;HPM_P2
2022/05/15 00:01:27;;;;;;;0.10;0.10;;;;;;;;;;5086484;28;20082;-76
2022/05/15 00:03:53;;;;;;;0.05;0.05;;;;;;;;;;5093533;28;20036;-80
2022/05/15 00:06:19;;;;;;;0.10;0.10;;;;;;;;;;5093623;28;20061;-76
2022/05/15 00:08:45;;;;;;;0.10;0.10;;;;;;;;;;5103569;28;20118;-76
2022/05/15 00:11:16;;;;;;;0.10;0.10;;;;;;;;;;5093557;28;20099;-76
2022/05/15 00:13:42;;;;;;;0.10;0.10;;;;;;;;;;5093206;28;20441;-76
2022/05/15 00:16:08;;;;;;;0.10;0.10;;;;;;;;;;5094705;28;20024;-77
2022/05/15 00:18:35;;;;;;;0.10;0.10;;;;;;;;;;5110357;28;20040;-76
2022/05/15 00:21:01;;;;;;;0.10;0.10;;;;;;;;;;5111380;28;20055;-76
2022/05/15 00:23:27;;;;;;;0.10;0.10;;;;;;;;;;5096786;28;20016;-77
2022/05/15 00:25:53;;;;;;;0.10;0.10;;;;;;;;;;5092855;28;20016;-81
2022/05/15 00:28:20;;;;;;;0.10;0.10;;;;;;;;;;5092980;28;20054;-82
2022/05/15 00:30:46;;;;;;;0.10;0.10;;;;;;;;;;5092786;28;20031;-81
2022/05/15 00:33:12;;;;;;;0.10;0.10;;;;;;;;;;5092878;28;20028;-81
2022/05/15 00:35:38;;;;;;;0.10;0.10;;;;;;;;;;5093531;28;20020;-81
2022/05/15 00:38:05;;;;;;;0.10;0.10;;;;;;;;;;5107522;28;20487;-80
2022/05/15 00:40:31;;;;;;;0.10;0.10;;;;;;;;;;5108353;28;20080;-81
2022/05/15 00:42:57;;;;;;;0.10;0.10;;;;;;;;;;5112707;28;20098;-81
2022/05/15 00:45:24;;;;;;;0.10;0.10;;;;;;;;;;5113390;28;20149;-81
2022/05/15 00:47:50;;;;;;;0.10;0.10;;;;;;;;;;5099482;28;20024;-78
2022/05/15 00:50:21;;;;;;;0.10;0.10;;;;;;;;;;5105579;28;20031;-81
2022/05/15 00:52:48;;;;;;;0.10;0.10;;;;;;;;;;5112527;28;20020;-81
2022/05/15 00:55:34;;;;;;;0.10;0.10;;;;;;;;;;5108465;28;20032;-81
2022/05/15 00:58:03;;;;;;;0.10;0.10;;;;;;;;;;5102197;28;20055;-79
2022/05/15 01:00:31;;;;;;;0.10;0.10;;;;;;;;;;5098719;28;20035;-79
2022/05/15 01:03:06;;;;;;;0.10;0.10;;;;;;;;;;5092259;28;20039;-77
2022/05/15 01:05:33;;;;;;;0.10;0.10;;;;;;;;;;5094543;28;20032;-81
2022/05/15 01:07:59;;;;;;;0.10;0.10;;;;;;;;;;5090453;28;20127;-80
2022/05/15 01:10:25;;;;;;;0.10;0.10;;;;;;;;;;5092547;28;20024;-77
2022/05/15 01:12:52;;;;;;;0.10;0.10;;;;;;;;;;5092188;28;20032;-79
2022/05/15 01:15:24;;;;;;;0.10;0.10;;;;;;;;;;5093349;28;20016;-79
2022/05/15 01:17:50;;;;;;;0.10;0.10;;;;;;;;;;5101062;28;20035;-78
2022/05/15 01:20:19;;;;;;;0.10;0.10;;;;;;;;;;5110595;28;20433;-78
2022/05/15 01:22:45;;;;;;;0.10;0.10;;;;;;;;;;5112369;28;20020;-82
2022/05/15 01:25:19;;;;;;;0.10;0.10;;;;;;;;;;5106574;28;20139;-81
2022/05/15 01:27:49;;;;;;;0.10;0.10;;;;;;;;;;5091965;28;20024;-80
2022/05/15 01:30:15;;;;;;;0.10;0.10;;;;;;;;;;5092002;28;20020;-78
2022/05/15 01:32:41;;;;;;;0.10;0.10;;;;;;;;;;5093418;28;20051;-78
2022/05/15 01:35:07;;;;;;;0.10;0.10;;;;;;;;;;5107542;28;20500;-77
2022/05/15 01:37:33;;;;;;;0.10;0.10;;;;;;;;;;5103052;28;20020;-77
2022/05/15 01:39:59;;;;;;;0.10;0.10;;;;;;;;;;5095350;28;20034;-78
2022/05/15 01:42:25;;;;;;;0.10;0.10;;;;;;;;;;5112207;28;20024;-77
2022/05/15 01:44:51;;;;;;;0.10;0.10;;;;;;;;;;5093758;28;20390;-77
2022/05/15 01:47:17;;;;;;;0.10;0.10;;;;;;;;;;5105293;28;20031;-78
2022/05/15 01:49:43;;;;;;;0.10;0.10;;;;;;;;;;5095454;28;20046;-78
2022/05/15 01:52:09;;;;;;;0.10;0.10;;;;;;;;;;5111950;28;20386;-78
2022/05/15 01:54:35;;;;;;;0.10;0.10;;;;;;;;;;5109068;28;20023;-77
2022/05/15 01:57:01;;;;;;;0.10;0.10;;;;;;;;;;5094707;28;20043;-76
2022/05/15 01:59:27;;;;;;;0.10;0.10;;;;;;;;;;5091557;28;20118;-77
2022/05/15 02:01:53;;;;;;;0.10;0.10;;;;;;;;;;5092157;28;20020;-75
2022/05/15 02:04:19;;;;;;;0.10;0.10;;;;;;;;;;5091524;28;20024;-76
2022/05/15 02:06:45;;;;;;;0.10;0.10;;;;;;;;;;5104418;28;20070;-77
2022/05/15 02:09:11;;;;;;;0.20;0.20;;;;;;;;;;5095640;28;20032;-76
2022/05/15 02:11:38;;;;;;;0.10;0.10;;;;;;;;;;5091800;28;20033;-76
2022/05/15 02:14:04;;;;;;;0.10;0.10;;;;;;;;;;5091426;28;20035;-78
2022/05/15 02:16:31;;;;;;;0.10;0.10;;;;;;;;;;5102343;28;20145;-78
2022/05/15 02:18:57;;;;;;;0.10;0.10;;;;;;;;;;5093773;28;20044;-77
2022/05/15 02:21:23;;;;;;;0.10;0.10;;;;;;;;;;5091701;28;20369;-77
2022/05/15 02:23:49;;;;;;;0.10;0.10;;;;;;;;;;5091050;28;20024;-80
2022/05/15 02:26:16;;;;;;;0.10;0.10;;;;;;;;;;5095466;28;20496;-77
2022/05/15 02:28:42;;;;;;;0.10;0.10;;;;;;;;;;5091932;28;20031;-80
2022/05/15 02:31:08;;;;;;;0.10;0.10;;;;;;;;;;5091440;28;20388;-77
2022/05/15 02:33:34;;;;;;;0.10;0.10;;;;;;;;;;5090136;28;20021;-78
2022/05/15 02:36:01;;;;;;;0.10;0.10;;;;;;;;;;5098606;28;20036;-78
2022/05/15 02:38:27;;;;;;;0.10;0.10;;;;;;;;;;5111557;28;20035;-80
2022/05/15 02:40:53;;;;;;;0.10;0.10;;;;;;;;;;5113156;28;20098;-80
2022/05/15 02:43:19;;;;;;;0.10;0.10;;;;;;;;;;5115768;28;20094;-81
2022/05/15 02:45:45;;;;;;;0.30;0.30;;;;;;;;;;5103228;28;20044;-79
2022/05/15 02:51:05;;;;;;;0.10;0.10;;;;;;;;;;5080148;28;20460;-81
2022/05/15 02:53:33;;;;;;;0.10;0.10;;;;;;;;;;5074925;28;20506;-81
2022/05/15 02:55:59;;;;;;;0.10;0.10;;;;;;;;;;5088792;28;20393;-81
2022/05/15 02:58:26;;;;;;;0.10;0.10;;;;;;;;;;5094849;28;20036;-78
2022/05/15 03:00:52;;;;;;;0.10;0.10;;;;;;;;;;5094719;28;20046;-76
2022/05/15 03:03:18;;;;;;;0.10;0.10;;;;;;;;;;5094646;28;20032;-78
2022/05/15 03:05:44;;;;;;;0.10;0.10;;;;;;;;;;5098155;28;20022;-81
2022/05/15 03:08:10;;;;;;;0.10;0.10;;;;;;;;;;5115056;28;20027;-79
2022/05/15 03:10:36;;;;;;;0.10;0.10;;;;;;;;;;5115423;28;20399;-77
2022/05/15 03:13:02;;;;;;;0.10;0.10;;;;;;;;;;5114409;28;20031;-78
2022/05/15 03:15:28;;;;;;;0.10;0.10;;;;;;;;;;5113406;28;20030;-78
2022/05/15 03:17:54;;;;;;;0.10;0.10;;;;;;;;;;5094334;28;20036;-79
2022/05/15 03:20:20;;;;;;;0.10;0.10;;;;;;;;;;5094642;28;20410;-79
2022/05/15 03:22:46;;;;;;;0.10;0.10;;;;;;;;;;5094151;28;20028;-79
2022/05/15 03:25:12;;;;;;;0.10;0.10;;;;;;;;;;5095547;28;20502;-79
2022/05/15 03:27:39;;;;;;;0.10;0.10;;;;;;;;;;5094765;28;20024;-78
2022/05/15 03:30:06;;;;;;;0.10;0.10;;;;;;;;;;5108238;28;20507;-77
2022/05/15 03:32:32;;;;;;;0.10;0.10;;;;;;;;;;5114770;28;20209;-77
2022/05/15 03:34:58;;;;;;;0.10;0.10;;;;;;;;;;5114486;28;20889;-78
2022/05/15 03:37:24;;;;;;;0.10;0.10;;;;;;;;;;5111905;28;20054;-77
2022/05/15 03:39:50;;;;;;;0.10;0.10;;;;;;;;;;5114349;28;20483;-78
2022/05/15 03:42:17;;;;;;;0.10;0.10;;;;;;;;;;5114599;28;20020;-78
2022/05/15 03:44:43;;;;;;;0.10;0.10;;;;;;;;;;5114270;28;20592;-77
2022/05/15 03:47:09;;;;;;;0.10;0.10;;;;;;;;;;5114210;28;20110;-77
2022/05/15 03:49:35;;;;;;;0.00;0.00;;;;;;;;;;5114323;28;20030;-79
2022/05/15 03:52:02;;;;;;;0.10;0.10;;;;;;;;;;5113269;28;20402;-78
2022/05/15 03:54:28;;;;;;;0.10;0.10;;;;;;;;;;5114329;28;20016;-77
2022/05/15 03:56:54;;;;;;;0.10;0.10;;;;;;;;;;5104718;28;20043;-76
2022/05/15 03:59:41;;;;;;;0.10;0.10;;;;;;;;;;5093666;28;20048;-77
2022/05/15 04:02:09;;;;;;;0.10;0.10;;;;;;;;;;5094029;28;20024;-81
2022/05/15 04:04:35;;;;;;;0.10;0.10;;;;;;;;;;5093797;28;20028;-80
2022/05/15 04:07:01;;;;;;;0.10;0.10;;;;;;;;;;5094306;28;20043;-80
2022/05/15 04:09:28;;;;;;;0.10;0.10;;;;;;;;;;5109257;28;20433;-82
2022/05/15 04:11:54;;;;;;;0.10;0.10;;;;;;;;;;5113888;28;20106;-82
2022/05/15 04:14:20;;;;;;;0.10;0.10;;;;;;;;;;5113698;28;20100;-81
2022/05/15 04:16:46;;;;;;;0.10;0.10;;;;;;;;;;5111393;28;20479;-79
2022/05/15 04:19:12;;;;;;;0.00;0.00;;;;;;;;;;5113375;28;20043;-78
2022/05/15 04:21:40;;;;;;;0.00;0.00;;;;;;;;;;5113922;28;20391;-79
2022/05/15 04:24:16;;;;;;;0.10;0.10;;;;;;;;;;5114020;28;20019;-79
2022/05/15 04:26:41;;;;;;;;;;;;;;;;;;5112087;28;20027;-77
2022/05/15 04:29:08;;;;;;;0.10;0.10;;;;;;;;;;5105545;28;19908;-77
2022/05/15 04:31:34;;;;;;;0.10;0.10;;;;;;;;;;5093709;28;20092;-77
2022/05/15 04:34:01;;;;;;;0.10;0.10;;;;;;;;;;5092929;28;20028;-77
2022/05/15 04:36:27;;;;;;;0.10;0.10;;;;;;;;;;5100189;28;20040;-78
2022/05/15 04:38:53;;;;;;;0.10;0.10;;;;;;;;;;5104323;28;20032;-77
2022/05/15 04:41:19;;;;;;;0.08;0.08;;;;;;;;;;5094016;28;20026;-77
2022/05/15 04:43:46;;;;;;;0.10;0.10;;;;;;;;;;5091388;28;20118;-78
2022/05/15 04:46:12;;;;;;;0.10;0.10;;;;;;;;;;5096291;28;20034;-76
2022/05/15 04:48:39;;;;;;;0.10;0.10;;;;;;;;;;5113561;28;20023;-77
2022/05/15 04:51:05;;;;;;;0.10;0.10;;;;;;;;;;5109295;28;20456;-77
2022/05/15 04:53:31;;;;;;;0.00;0.00;;;;;;;;;;5111290;28;20107;-78
2022/05/15 04:55:57;;;;;;;0.10;0.10;;;;;;;;;;5111088;28;20016;-76
2022/05/15 04:58:23;;;;;;;0.10;0.10;;;;;;;;;;5104890;28;20509;-77
2022/05/15 05:00:50;;;;;;;0.10;0.10;;;;;;;;;;5091850;28;20024;-76
2022/05/15 05:03:16;;;;;;;0.10;0.10;;;;;;;;;;5096001;28;20051;-77
2022/05/15 05:05:42;;;;;;;0.10;0.10;;;;;;;;;;5092103;28;20095;-77
2022/05/15 05:08:09;;;;;;;0.10;0.10;;;;;;;;;;5093437;28;20495;-77
2022/05/15 05:10:35;;;;;;;0.10;0.10;;;;;;;;;;5092500;28;20028;-77
2022/05/15 05:13:01;;;;;;;0.10;0.10;;;;;;;;;;5092200;28;20549;-76
2022/05/15 05:15:27;;;;;;;0.00;0.00;;;;;;;;;;5092357;28;20024;-78
2022/05/15 05:17:53;;;;;;;0.00;0.00;;;;;;;;;;5091938;28;20049;-77
2022/05/15 05:20:19;;;;;;;0.10;0.10;;;;;;;;;;5093012;28;20039;-76
2022/05/15 05:22:45;;;;;;;0.08;0.08;;;;;;;;;;5090671;28;20020;-76
2022/05/15 05:25:11;;;;;;;0.10;0.10;;;;;;;;;;5092185;28;20483;-77
2022/05/15 05:27:38;;;;;;;0.10;0.10;;;;;;;;;;5094194;28;20115;-78
2022/05/15 05:30:08;;;;;;;0.10;0.10;;;;;;;;;;5090363;28;20040;-76
2022/05/15 05:32:34;;;;;;;0.10;0.10;;;;;;;;;;5092229;28;20051;-76
2022/05/15 05:35:00;;;;;;;0.10;0.10;;;;;;;;;;5091460;28;20499;-77
2022/05/15 05:37:26;;;;;;;0.10;0.10;;;;;;;;;;5090078;28;20078;-78
2022/05/15 05:39:55;;;;;;;0.10;0.10;;;;;;;;;;5098913;28;20020;-76
2022/05/15 05:42:21;;;;;;;0.10;0.10;;;;;;;;;;5092758;28;20024;-76
2022/05/15 05:44:47;;;;;;;0.10;0.10;;;;;;;;;;5098572;28;20031;-77
2022/05/15 05:47:13;;;;;;;0.10;0.10;;;;;;;;;;5091700;28;20456;-77
2022/05/15 05:49:39;;;;;;;0.10;0.10;;;;;;;;;;5090279;28;20024;-78
2022/05/15 05:52:05;;;;;;;0.10;0.10;;;;;;;;;;5092063;28;20034;-78
2022/05/15 05:54:31;;;;;;;0.10;0.10;;;;;;;;;;5095168;28;20024;-78
2022/05/15 05:56:58;;;;;;;0.10;0.10;;;;;;;;;;5111775;28;20027;-77
2022/05/15 05:59:24;;;;;;;0.10;0.10;;;;;;;;;;5102073;28;20035;-79
2022/05/15 06:01:50;;;;;;;0.10;0.10;;;;;;;;;;5091232;28;20024;-79
2022/05/15 06:07:01;;;;;;;0.10;0.10;;;;;;;;;;5092310;28;20206;-82
2022/05/15 06:09:27;;;;;;;0.10;0.10;;;;;;;;;;5099807;28;20049;-80
2022/05/15 06:11:53;;;;;;;0.10;0.10;;;;;;;;;;5111526;28;20024;-80
2022/05/15 06:14:19;;;;;;;0.10;0.10;;;;;;;;;;5111920;28;20027;-80
2022/05/15 06:16:45;;;;;;;0.10;0.10;;;;;;;;;;5100608;28;20053;-80
2022/05/15 06:19:11;;;;;;;0.10;0.10;;;;;;;;;;5091351;28;20036;-80
2022/05/15 06:21:37;;;;;;;0.10;0.10;;;;;;;;;;5091706;28;20076;-89
2022/05/15 06:24:03;;;;;;;0.10;0.10;;;;;;;;;;5091597;28;20028;-83
2022/05/15 06:26:29;;;;;;;0.10;0.10;;;;;;;;;;5097090;28;20036;-80
2022/05/15 06:28:55;;;;;;;0.10;0.10;;;;;;;;;;5111109;28;20020;-82
2022/05/15 06:31:21;;;;;;;0.10;0.10;;;;;;;;;;5110214;28;20047;-79
2022/05/15 06:33:47;;;;;;;0.10;0.10;;;;;;;;;;5111345;28;20073;-83
2022/05/15 06:36:13;;;;;;;0.10;0.10;;;;;;;;;;5106603;28;20524;-81
2022/05/15 06:38:41;;;;;;;0.10;0.10;;;;;;;;;;5090915;28;20073;-79
2022/05/15 06:41:10;;;;;;;0.10;0.10;;;;;;;;;;5091431;28;20388;-80
2022/05/15 06:43:36;;;;;;;0.13;0.13;;;;;;;;;;5091501;28;20032;-81
2022/05/15 06:46:03;;;;;;;0.10;0.10;;;;;;;;;;5091882;28;20097;-83
2022/05/15 06:48:29;;;;;;;0.10;0.10;;;;;;;;;;5091183;28;20369;-82
2022/05/15 06:50:55;;;;;;;0.10;0.10;;;;;;;;;;5090860;28;20056;-83
2022/05/15 06:53:21;;;;;;;0.10;0.10;;;;;;;;;;5091131;28;20028;-84
2022/05/15 06:58:34;;;;;;;0.10;0.10;;;;;;;;;;5070598;28;20462;-83
2022/05/15 07:01:00;;;;;;;0.10;0.10;;;;;;;;;;5070657;28;20043;-85
2022/05/15 07:03:27;;;;;;;0.10;0.10;;;;;;;;;;5071263;28;20021;-84
2022/05/15 07:05:53;;;;;;;0.10;0.10;;;;;;;;;;5104172;28;20039;-82
2022/05/15 07:08:19;;;;;;;0.10;0.10;;;;;;;;;;5099662;28;20496;-85
2022/05/15 07:10:45;;;;;;;0.10;0.10;;;;;;;;;;5096622;28;20024;-84
2022/05/15 07:13:11;;;;;;;0.10;0.10;;;;;;;;;;5099429;28;20400;-83
2022/05/15 07:15:38;;;;;;;0.22;0.22;;;;;;;;;;5111492;28;20494;-84
2022/05/15 07:18:07;;;;;;;0.10;0.10;;;;;;;;;;5110952;28;20052;-83
2022/05/15 07:20:33;;;;;;;0.10;0.10;;;;;;;;;;5099488;28;20056;-84
2022/05/15 07:22:59;;;;;;;0.00;0.00;;;;;;;;;;5111050;28;20032;-82
2022/05/15 07:25:25;;;;;;;0.10;0.10;;;;;;;;;;5108677;28;20032;-77
2022/05/15 07:27:52;;;;;;;0.10;0.10;;;;;;;;;;5110556;28;20498;-76
2022/05/15 07:30:18;;;;;;;0.10;0.10;;;;;;;;;;5115126;28;20379;-77
2022/05/15 07:32:44;;;;;;;0.10;0.10;;;;;;;;;;5114484;28;20062;-77
2022/05/15 07:35:10;;;;;;;0.10;0.10;;;;;;;;;;5114711;28;20465;-77
2022/05/15 07:37:36;;;;;;;0.10;0.10;;;;;;;;;;5105390;28;20023;-77
2022/05/15 07:40:03;;;;;;;0.10;0.10;;;;;;;;;;5093951;28;20032;-80
2022/05/15 07:42:29;;;;;;;0.10;0.10;;;;;;;;;;5094097;28;20523;-81
2022/05/15 07:44:57;;;;;;;0.10;0.10;;;;;;;;;;5093793;28;20106;-82
2022/05/15 07:47:24;;;;;;;0.10;0.10;;;;;;;;;;5094097;28;20027;-83
2022/05/15 07:49:50;;;;;;;0.10;0.10;;;;;;;;;;5093814;28;20016;-85
2022/05/15 07:52:16;;;;;;;0.40;0.40;;;;;;;;;;5094097;28;20077;-82
2022/05/15 07:54:42;;;;;;;0.10;0.10;;;;;;;;;;5099748;28;20094;-83
2022/05/15 07:57:08;;;;;;;0.10;0.10;;;;;;;;;;5114624;28;20107;-83
2022/05/15 07:59:34;;;;;;;0.10;0.10;;;;;;;;;;5114837;28;20058;-81
2022/05/15 08:02:02;;;;;;;0.10;0.10;;;;;;;;;;5099585;28;20031;-85
2022/05/15 08:04:28;;;;;;;0.10;0.10;;;;;;;;;;5094751;28;20031;-80
2022/05/15 08:09:39;;;;;;;0.10;0.10;;;;;;;;;;5093705;28;20034;-79
2022/05/15 08:12:05;;;;;;;0.10;0.10;;;;;;;;;;5093679;28;20110;-85
2022/05/15 08:14:31;;;;;;;0.10;0.10;;;;;;;;;;5093785;28;20020;-84
2022/05/15 08:16:57;;;;;;;0.10;0.10;;;;;;;;;;5093214;28;20073;-81
2022/05/15 08:24:52;;;;;;;0.10;0.10;;;;;;;;;;5113367;28;20039;-79
2022/05/15 08:27:18;;;;;;;0.10;0.10;;;;;;;;;;5113657;28;20020;-79
2022/05/15 08:29:44;;;;;;;0.10;0.10;;;;;;;;;;5113341;28;20111;-79
2022/05/15 08:32:11;;;;;;;0.10;0.10;;;;;;;;;;5113666;28;20490;-80
2022/05/15 08:34:37;;;;;;;0.10;0.10;;;;;;;;;;5114073;28;20024;-80
2022/05/15 08:37:03;;;;;;;0.10;0.10;;;;;;;;;;5098743;28;20024;-79
2022/05/15 08:39:30;;;;;;;0.10;0.10;;;;;;;;;;5092922;28;20096;-82
2022/05/15 08:42:08;;;;;;;2.65;2.45;;;;;;;;;;5092599;28;20409;-81
2022/05/15 08:44:37;;;;;;;0.10;0.10;;;;;;;;;;5093046;28;20490;-81
2022/05/15 08:47:03;;;;;;;0.10;0.10;;;;;;;;;;5092676;28;20020;-79
2022/05/15 08:49:32;;;;;;;0.10;0.10;;;;;;;;;;5092839;28;20367;-78
2022/05/15 08:52:06;;;;;;;0.00;0.00;;;;;;;;;;5092790;28;20035;-77
2022/05/15 08:54:34;;;;;;;0.08;0.08;;;;;;;;;;5092552;28;20028;-79
2022/05/15 08:57:00;;;;;;;0.10;0.10;;;;;;;;;;5092749;28;20025;-80
2022/05/15 08:59:27;;;;;;;0.10;0.10;;;;;;;;;;5092447;28;20043;-82
2022/05/15 09:01:54;;;;;;;0.10;0.10;;;;;;;;;;5092453;28;20024;-80
2022/05/15 09:04:21;;;;;;;0.10;0.10;;;;;;;;;;5092703;28;20089;-78
2022/05/15 09:06:48;;;;;;;0.10;0.10;;;;;;;;;;5091764;28;20492;-78
2022/05/15 09:09:20;;;;;;;0.10;0.10;;;;;;;;;;5091267;28;20112;-78
2022/05/15 09:11:53;;;;;;;0.10;0.10;;;;;;;;;;5091536;28;20440;-77
2022/05/15 09:14:38;;;;;;;0.10;0.10;;;;;;;;;;5091998;28;20111;-77
2022/05/15 09:17:10;;;;;;;0.10;0.10;;;;;;;;;;5092261;28;20104;-78
2022/05/15 09:19:37;;;;;;;0.10;0.10;;;;;;;;;;5092538;28;20027;-77
2022/05/15 09:22:04;;;;;;;0.10;0.10;;;;;;;;;;5092901;28;20024;-78
2022/05/15 09:24:38;;;;;;;0.10;0.10;;;;;;;;;;5091111;28;20455;-78
2022/05/15 09:27:11;;;;;;;0.10;0.10;;;;;;;;;;5102211;28;20016;-78
2022/05/15 09:29:37;;;;;;;0.10;0.10;;;;;;;;;;5091735;28;20020;-79
2022/05/15 09:32:06;;;;;;;0.10;0.10;;;;;;;;;;5091253;28;20624;-79
2022/05/15 09:34:36;;;;;;;0.10;0.10;;;;;;;;;;5102781;28;20022;-78
2022/05/15 09:39:50;;;;;;;0.15;0.15;;;;;;;;;;5081137;28;20059;-78
2022/05/15 09:45:17;;;;;;;0.10;0.10;;;;;;;;;;5099288;28;20039;-78
2022/05/15 09:47:52;;;;;;;0.10;0.10;;;;;;;;;;5079687;28;20140;-78
2022/05/15 09:50:36;;;;;;;0.10;0.10;;;;;;;;;;5104202;28;20059;-78
2022/05/15 09:53:06;;;;;;;0.10;0.10;;;;;;;;;;5070572;28;20028;-78
2022/05/15 09:55:32;;;;;;;0.10;0.10;;;;;;;;;;5103804;28;20058;-77
2022/05/15 09:58:03;;;;;;;0.10;0.10;;;;;;;;;;5101881;28;20487;-77
2022/05/15 10:00:35;;;;;;;0.52;0.52;;;;;;;;;;5089502;28;20028;-78
2022/05/15 10:03:15;;;;;;;0.10;0.10;;;;;;;;;;5090708;28;20021;-79
2022/05/15 10:05:41;;;;;;;0.10;0.10;;;;;;;;;;5097782;28;20101;-77
2022/05/15 10:08:10;;;;;;;0.10;0.10;;;;;;;;;;5111419;28;20015;-78
2022/05/15 10:10:38;;;;;;;0.10;0.10;;;;;;;;;;5111986;28;20047;-78
2022/05/15 10:13:35;;;;;;;0.10;0.10;;;;;;;;;;5103256;28;20027;-77
2022/05/15 10:16:07;;;;;;;0.10;0.10;;;;;;;;;;5092454;28;20061;-78
2022/05/15 10:18:39;;;;;;;0.10;0.10;;;;;;;;;;5108354;28;20028;-79
2022/05/15 10:21:05;;;;;;;0.10;0.10;;;;;;;;;;5111817;28;20027;-77
2022/05/15 10:23:42;;;;;;;0.10;0.10;;;;;;;;;;5101542;28;20028;-77
2022/05/15 10:26:19;;;;;;;0.10;0.10;;;;;;;;;;5092533;28;20537;-76
2022/05/15 10:28:51;;;;;;;0.10;0.10;;;;;;;;;;5107232;28;20020;-76
2022/05/15 10:31:19;;;;;;;0.10;0.10;;;;;;;;;;5091606;28;20487;-80
2022/05/15 10:33:50;;;;;;;0.10;0.10;;;;;;;;;;5096649;28;20031;-78
2022/05/15 10:36:19;;;;;;;0.10;0.10;;;;;;;;;;5105625;28;20058;-80
2022/05/15 10:38:45;;;;;;;0.10;0.10;;;;;;;;;;5093744;28;20043;-77
2022/05/15 10:41:19;;;;;;;0.10;0.10;;;;;;;;;;5105985;28;20034;-77
2022/05/15 10:43:50;;;;;;;0.10;0.10;;;;;;;;;;5091452;28;20058;-79
2022/05/15 10:46:16;;;;;;;1.27;1.27;;;;;;;;;;5102565;28;20016;-78
2022/05/15 10:48:57;;;;;;;0.10;0.10;;;;;;;;;;5092122;28;20047;-78
2022/05/15 10:51:23;;;;;;;0.05;0.05;;;;;;;;;;5081850;28;20055;-78
2022/05/15 10:59:36;;;;;;;0.10;0.10;;;;;;;;;;5087934;28;20051;-76
2022/05/15 11:02:15;;;;;;;0.10;0.10;;;;;;;;;;5092779;28;20024;-78
2022/05/15 11:04:44;;;;;;;0.10;0.10;;;;;;;;;;5102549;28;20032;-76
2022/05/15 11:07:32;;;;;;;0.10;0.10;;;;;;;;;;5098079;28;20027;-77
2022/05/15 11:10:11;;;;;;;0.10;0.10;;;;;;;;;;5096010;28;20023;-77
2022/05/15 11:12:44;;;;;;;0.10;0.10;;;;;;;;;;5099404;28;20028;-76
2022/05/15 11:15:29;;;;;;;0.10;0.10;;;;;;;;;;5100119;28;20095;-75
2022/05/15 11:18:15;;;;;;;0.10;0.10;;;;;;;;;;5103047;28;20023;-78
2022/05/15 11:20:43;;;;;;;0.10;0.10;;;;;;;;;;5094563;28;20637;-77
2022/05/15 11:23:15;;;;;;;0.10;0.10;;;;;;;;;;5106568;28;20040;-77
2022/05/15 11:25:48;;;;;;;0.10;0.10;;;;;;;;;;5100596;28;20034;-76
2022/05/15 11:28:27;;;;;;;0.10;0.10;;;;;;;;;;5102052;28;20032;-77
2022/05/15 11:31:02;;;;;;;0.17;0.17;;;;;;;;;;5098979;28;20042;-78
2022/05/15 11:33:47;;;;;;;0.20;0.20;;;;;;;;;;5104205;28;20027;-80
2022/05/15 11:36:22;;;;;;;0.10;0.10;;;;;;;;;;5103894;28;20028;-77
2022/05/15 11:38:59;;;;;;;0.10;0.10;;;;;;;;;;5099238;28;20476;-78
2022/05/15 11:41:37;;;;;;;0.10;0.10;;;;;;;;;;5104883;28;20023;-77
2022/05/15 11:44:32;;;;;;;0.10;0.10;;;;;;;;;;5103813;28;20027;-77
2022/05/15 11:47:00;;;;;;;0.10;0.10;;;;;;;;;;5024582;28;20413;-77
2022/05/15 11:49:32;;;;;;;0.10;0.10;;;;;;;;;;5103299;28;20173;-76
2022/05/15 11:52:08;;;;;;;0.10;0.10;;;;;;;;;;5084529;28;20040;-77
2022/05/15 11:54:39;;;;;;;0.10;0.10;;;;;;;;;;5093526;28;20016;-78
2022/05/15 11:57:07;;;;;;;0.10;0.10;;;;;;;;;;5091996;28;20643;-77
2022/05/15 11:59:35;;;;;;;0.10;0.10;;;;;;;;;;5095569;28;20433;-77
2022/05/15 12:02:03;;;;;;;0.10;0.10;;;;;;;;;;5109936;28;20032;-76
2022/05/15 12:04:35;;;;;;;0.10;0.10;;;;;;;;;;5094390;28;20435;-77
2022/05/15 12:07:01;;;;;;;0.10;0.10;;;;;;;;;;5103296;28;20028;-77
2022/05/15 12:09:33;;;;;;;0.10;0.10;;;;;;;;;;5105617;27;20070;-77
2022/05/15 12:12:18;;;;;;;0.10;0.10;;;;;;;;;;5091924;28;20505;-76
2022/05/15 12:15:19;;;;;;;0.10;0.10;;;;;;;;;;5102167;28;20473;-77
2022/05/15 12:17:55;;;;;;;0.10;0.10;;;;;;;;;;5057330;28;20028;-77
2022/05/15 12:20:31;;;;;;;0.10;0.10;;;;;;;;;;5091128;28;20495;-77
2022/05/15 12:22:59;;;;;;;0.10;0.10;;;;;;;;;;5093520;28;20016;-78
2022/05/15 12:25:30;;;;;;;0.10;0.10;;;;;;;;;;5091510;28;20077;-77
2022/05/15 12:30:53;;;;;;;0.10;0.10;;;;;;;;;;5089654;28;20499;-77
2022/05/15 12:33:25;;;;;;;0.10;0.10;;;;;;;;;;5091778;28;20039;-78
2022/05/15 12:35:51;;;;;;;0.10;0.10;;;;;;;;;;5091421;28;20115;-77
2022/05/15 12:38:19;;;;;;;0.15;0.15;;;;;;;;;;5092119;28;20081;-77
2022/05/15 12:40:57;;;;;;;0.10;0.10;;;;;;;;;;5092795;28;20035;-77
2022/05/15 12:43:26;;;;;;;0.10;0.10;;;;;;;;;;5092970;28;20364;-77
2022/05/15 12:45:52;;;;;;;0.10;0.10;;;;;;;;;;5092457;28;20099;-77
2022/05/15 12:48:19;;;;;;;0.10;0.10;;;;;;;;;;5098809;28;20110;-76
2022/05/15 12:50:48;;;;;;;0.10;0.10;;;;;;;;;;5113041;28;20022;-76
2022/05/15 12:53:18;;;;;;;0.10;0.10;;;;;;;;;;5112258;28;20487;-76
2022/05/15 12:55:44;;;;;;;0.10;0.10;;;;;;;;;;5091646;28;20034;-76
2022/05/15 12:58:11;;;;;;;0.10;0.10;;;;;;;;;;5092918;28;20036;-76
2022/05/15 13:00:38;;;;;;;0.10;0.10;;;;;;;;;;5097988;28;20019;-76
2022/05/15 13:03:06;;;;;;;0.10;0.10;;;;;;;;;;5102509;28;20020;-76
2022/05/15 13:05:35;;;;;;;0.10;0.10;;;;;;;;;;5092072;28;20042;-80
2022/05/15 13:08:03;;;;;;;0.10;0.10;;;;;;;;;;5092161;28;20032;-80
2022/05/15 13:10:30;;;;;;;0.10;0.10;;;;;;;;;;5092147;28;20364;-78
2022/05/15 13:12:58;;;;;;;0.10;0.10;;;;;;;;;;5091236;28;20032;-81
2022/05/15 13:15:28;;;;;;;0.10;0.10;;;;;;;;;;5091321;28;20037;-80
2022/05/15 13:17:56;;;;;;;0.10;0.10;;;;;;;;;;5091071;28;20028;-79
2022/05/15 13:20:23;;;;;;;0.10;0.10;;;;;;;;;;5091715;28;20060;-80
2022/05/15 13:22:50;;;;;;;0.90;0.90;;;;;;;;;;5090764;28;20019;-80
2022/05/15 13:25:24;;;;;;;0.10;0.10;;;;;;;;;;5090335;28;20031;-79
2022/05/15 13:27:51;;;;;;;0.10;0.10;;;;;;;;;;5091354;28;20028;-80
2022/05/15 13:30:20;;;;;;;0.10;0.10;;;;;;;;;;5091240;28;20020;-80
2022/05/15 13:32:48;;;;;;;0.10;0.10;;;;;;;;;;5091438;28;20028;-79
2022/05/15 13:35:14;;;;;;;0.10;0.10;;;;;;;;;;5091838;28;20028;-79
2022/05/15 13:37:42;;;;;;;0.10;0.10;;;;;;;;;;5098057;28;20039;-78
2022/05/15 13:46:03;;;;;;;0.10;0.10;;;;;;;;;;5111997;28;20038;-82
2022/05/15 13:48:49;;;;;;;0.10;0.10;;;;;;;;;;5112241;28;20486;-81
2022/05/15 13:51:15;;;;;;;;;;;;;;;;;;5112577;28;20047;-80
2022/05/15 13:53:42;;;;;;;;;;;;;;;;;;5111958;28;20286;-80
2022/05/15 13:56:09;;;;;;;0.10;0.10;;;;;;;;;;5111170;28;19904;-83
2022/05/15 13:58:40;;;;;;;0.10;0.10;;;;;;;;;;5112127;28;20028;-80
2022/05/15 14:01:33;;;;;;;0.10;0.10;;;;;;;;;;5106257;28;20157;-81
2022/05/15 14:04:00;;;;;;;0.10;0.10;;;;;;;;;;5109537;27;20070;-78
2022/05/15 14:06:28;;;;;;;0.08;0.08;;;;;;;;;;5090820;28;20032;-78
2022/05/15 14:09:03;;;;;;;0.10;0.10;;;;;;;;;;5090770;28;20115;-74
2022/05/15 14:11:46;;;;;;;0.10;0.10;;;;;;;;;;5092600;28;20053;-78
2022/05/15 14:14:12;;;;;;;0.10;0.10;;;;;;;;;;5098943;28;20038;-77
2022/05/15 14:16:38;;;;;;;0.10;0.10;;;;;;;;;;5094844;28;20031;-78
2022/05/15 14:19:16;;;;;;;0.10;0.10;;;;;;;;;;5091353;28;20032;-79
2022/05/15 14:21:59;;;;;;;0.10;0.10;;;;;;;;;;5091217;28;20020;-80
2022/05/15 14:24:25;;;;;;;0.10;0.10;;;;;;;;;;5089880;28;20099;-80
2022/05/15 14:26:51;;;;;;;0.10;0.10;;;;;;;;;;5090606;28;20036;-78
2022/05/15 14:29:18;;;;;;;0.10;0.10;;;;;;;;;;5091220;28;20054;-78
2022/05/15 14:31:45;;;;;;;0.10;0.10;;;;;;;;;;5091115;28;20107;-78
2022/05/15 14:34:11;;;;;;;0.10;0.10;;;;;;;;;;5091272;28;20515;-78
2022/05/15 14:36:37;;;;;;;0.10;0.10;;;;;;;;;;5093042;28;20024;-77
2022/05/15 14:39:03;;;;;;;0.10;0.10;;;;;;;;;;5095034;28;20495;-81
2022/05/15 14:41:29;;;;;;;0.10;0.10;;;;;;;;;;5095419;28;20032;-80
2022/05/15 14:43:55;;;;;;;0.10;0.10;;;;;;;;;;5093764;28;20548;-78
2022/05/15 14:46:27;;;;;;;0.10;0.10;;;;;;;;;;5095270;28;20039;-81
2022/05/15 14:48:54;;;;;;;0.10;0.10;;;;;;;;;;5089355;28;20387;-82
2022/05/15 14:51:22;;;;;;;0.10;0.10;;;;;;;;;;5074730;28;20029;-79
2022/05/15 14:53:48;;;;;;;0.00;0.00;;;;;;;;;;5094003;28;20549;-81
2022/05/15 14:56:16;;;;;;;0.10;0.10;;;;;;;;;;5096227;28;20028;-81
2022/05/15 14:59:01;;;;;;;0.10;0.10;;;;;;;;;;5115143;28;20024;-81
2022/05/15 15:01:27;;;;;;;0.10;0.10;;;;;;;;;;5115367;28;20049;-81
2022/05/15 15:03:54;;;;;;;0.10;0.10;;;;;;;;;;5112961;28;20024;-81
2022/05/15 15:06:20;;;;;;;0.10;0.10;;;;;;;;;;5110195;28;20495;-81
2022/05/15 15:08:47;;;;;;;0.10;0.10;;;;;;;;;;5101341;28;20024;-80
2022/05/15 15:11:15;;;;;;;0.10;0.10;;;;;;;;;;5114986;28;20016;-80
2022/05/15 15:13:43;;;;;;;0.10;0.10;;;;;;;;;;5112941;28;20034;-81
2022/05/15 15:16:09;;;;;;;0.10;0.10;;;;;;;;;;5114344;27;20219;-76
2022/05/15 15:18:35;;;;;;;0.10;0.10;;;;;;;;;;5115357;28;20039;-81
2022/05/15 15:21:02;;;;;;;0.10;0.10;;;;;;;;;;5114374;28;20464;-82
2022/05/15 15:23:28;;;;;;;0.10;0.10;;;;;;;;;;5113663;28;20387;-81
2022/05/15 15:25:54;;;;;;;0.10;0.10;;;;;;;;;;5114613;28;20023;-81
2022/05/15 15:28:20;;;;;;;0.10;0.10;;;;;;;;;;5114834;28;20046;-82